PABE/BET METAR and TAF weather

Enter ICAO airport designator
Station Type Date Time Source
PABE METAR 2020/09/18 07:16 UTC NOAA

PABE 180716Z 27014G23KT 10SM SCT011 BKN023 OVC045 08/08 A2932 RMK AO2 RAE01 P0000 T00780078


Station Type Date Time Source
PABE Decoded METAR 2020/09/18 07:16 UTC NOAA

BETHEL AIRPORT, AK, United States (PABE) 60-47N 161-50W 46M
Sep 18, 2020 - 03:16 AM EDT / 2020.09.18 0716 UTC
Wind: from the W (270 degrees) at 16 MPH (14 KT) gusting to 26 MPH (23 KT):0
Visibility: 10 mile(s):0
Sky conditions: overcast
Precipitation last hour: A trace
Temperature: 46.0 F (7.8 C)
Dew Point: 46.0 F (7.8 C)
Relative Humidity: 100%
Pressure (altimeter): 29.32 in. Hg (992 hPa)
ob: PABE 180716Z 27014G23KT 10SM SCT011 BKN023 OVC045 08/08 A2932 RMK AO2 RAE01 P0000 T00780078
cycle: 7

Station Type Date Time Source
PABE TAF 2020/09/18 06:24 UTC NOAA

PABE 180521Z 1806/1906 25015KT 6SM -RA BR SCT007 OVC015
FM181200 24016KT P6SM -SHRA BKN015 OVC025
FM181800 21012KT P6SM VCSH SCT015 BKN025

Example: see airport list